sensor_id;sensor_type;location;lat;lon;timestamp;temperature;humidity
12156;DHT22;6141;49.092;8.516;2023-04-25T00:00:05;11.00;57.90
12156;DHT22;6141;49.092;8.516;2023-04-25T00:02:38;10.90;57.70
12156;DHT22;6141;49.092;8.516;2023-04-25T00:05:08;11.00;57.80
12156;DHT22;6141;49.092;8.516;2023-04-25T00:07:37;10.90;57.70
12156;DHT22;6141;49.092;8.516;2023-04-25T00:10:07;11.00;57.80
12156;DHT22;6141;49.092;8.516;2023-04-25T00:12:36;11.10;57.90
12156;DHT22;6141;49.092;8.516;2023-04-25T00:15:06;11.30;55.60
12156;DHT22;6141;49.092;8.516;2023-04-25T00:17:35;11.50;54.50
12156;DHT22;6141;49.092;8.516;2023-04-25T00:20:09;11.70;53.80
12156;DHT22;6141;49.092;8.516;2023-04-25T00:22:39;11.10;56.10
12156;DHT22;6141;49.092;8.516;2023-04-25T00:25:08;10.70;58.80
12156;DHT22;6141;49.092;8.516;2023-04-25T00:27:36;10.60;60.00
12156;DHT22;6141;49.092;8.516;2023-04-25T00:30:07;10.70;59.50
12156;DHT22;6141;49.092;8.516;2023-04-25T00:32:36;10.60;60.20
12156;DHT22;6141;49.092;8.516;2023-04-25T00:35:05;10.60;60.70
12156;DHT22;6141;49.092;8.516;2023-04-25T00:37:35;10.50;61.00
12156;DHT22;6141;49.092;8.516;2023-04-25T00:40:05;10.40;61.80
12156;DHT22;6141;49.092;8.516;2023-04-25T00:42:35;10.50;61.20
12156;DHT22;6141;49.092;8.516;2023-04-25T00:45:06;10.90;59.60
12156;DHT22;6141;49.092;8.516;2023-04-25T00:47:36;11.10;57.90
12156;DHT22;6141;49.092;8.516;2023-04-25T00:50:06;11.30;58.10
12156;DHT22;6141;49.092;8.516;2023-04-25T00:52:38;11.20;58.00
12156;DHT22;6141;49.092;8.516;2023-04-25T00:55:07;11.00;59.20
12156;DHT22;6141;49.092;8.516;2023-04-25T00:57:36;11.10;57.90
12156;DHT22;6141;49.092;8.516;2023-04-25T01:00:07;10.90;58.30
12156;DHT22;6141;49.092;8.516;2023-04-25T01:02:40;10.80;58.70
12156;DHT22;6141;49.092;8.516;2023-04-25T01:05:09;10.50;60.10
12156;DHT22;6141;49.092;8.516;2023-04-25T01:07:40;10.80;59.60
12156;DHT22;6141;49.092;8.516;2023-04-25T01:10:09;10.80;58.40
12156;DHT22;6141;49.092;8.516;2023-04-25T01:12:38;10.90;57.70
12156;DHT22;6141;49.092;8.516;2023-04-25T01:15:08;11.10;56.70
12156;DHT22;6141;49.092;8.516;2023-04-25T01:17:36;11.00;56.70
12156;DHT22;6141;49.092;8.516;2023-04-25T01:20:07;10.80;57.60
12156;DHT22;6141;49.092;8.516;2023-04-25T01:22:38;10.90;57.70
12156;DHT22;6141;49.092;8.516;2023-04-25T01:25:07;11.00;57.10
12156;DHT22;6141;49.092;8.516;2023-04-25T01:27:37;11.00;57.80
12156;DHT22;6141;49.092;8.516;2023-04-25T01:30:07;11.10;57.00
12156;DHT22;6141;49.092;8.516;2023-04-25T01:32:36;11.00;56.20
12156;DHT22;6141;49.092;8.516;2023-04-25T01:35:08;11.20;55.10
12156;DHT22;6141;49.092;8.516;2023-04-25T01:37:40;11.30;54.90
12156;DHT22;6141;49.092;8.516;2023-04-25T01:40:12;11.10;55.80
12156;DHT22;6141;49.092;8.516;2023-04-25T01:42:43;11.00;55.20
12156;DHT22;6141;49.092;8.516;2023-04-25T01:45:13;11.10;55.70
12156;DHT22;6141;49.092;8.516;2023-04-25T01:47:41;11.10;56.20
12156;DHT22;6141;49.092;8.516;2023-04-25T01:50:11;10.90;55.90
12156;DHT22;6141;49.092;8.516;2023-04-25T01:52:42;10.80;57.60
12156;DHT22;6141;49.092;8.516;2023-04-25T01:55:11;10.70;57.50
12156;DHT22;6141;49.092;8.516;2023-04-25T01:57:50;10.50;57.30
12156;DHT22;6141;49.092;8.516;2023-04-25T02:00:24;10.60;58.90
12156;DHT22;6141;49.092;8.516;2023-04-25T02:02:53;10.80;58.40
12156;DHT22;6141;49.092;8.516;2023-04-25T02:05:27;10.90;57.70
12156;DHT22;6141;49.092;8.516;2023-04-25T02:07:57;10.60;57.40
12156;DHT22;6141;49.092;8.516;2023-04-25T02:10:26;10.50;58.20
12156;DHT22;6141;49.092;8.516;2023-04-25T02:13:07;10.70;57.50
12156;DHT22;6141;49.092;8.516;2023-04-25T02:16:00;10.90;56.80
12156;DHT22;6141;49.092;8.516;2023-04-25T02:18:29;10.80;56.50
12156;DHT22;6141;49.092;8.516;2023-04-25T02:21:03;10.60;57.40
12156;DHT22;6141;49.092;8.516;2023-04-25T02:23:34;10.60;57.50
12156;DHT22;6141;49.092;8.516;2023-04-25T02:26:04;10.80;57.60
12156;DHT22;6141;49.092;8.516;2023-04-25T02:28:33;10.80;57.60
12156;DHT22;6141;49.092;8.516;2023-04-25T02:31:04;10.80;57.60
12156;DHT22;6141;49.092;8.516;2023-04-25T02:33:33;10.80;57.30
12156;DHT22;6141;49.092;8.516;2023-04-25T02:36:01;10.80;57.80
12156;DHT22;6141;49.092;8.516;2023-04-25T02:38:31;10.90;58.40
12156;DHT22;6141;49.092;8.516;2023-04-25T02:41:01;10.70;60.00
12156;DHT22;6141;49.092;8.516;2023-04-25T02:43:29;10.70;60.40
12156;DHT22;6141;49.092;8.516;2023-04-25T02:45:59;10.50;60.70
12156;DHT22;6141;49.092;8.516;2023-04-25T02:48:28;10.40;60.90
12156;DHT22;6141;49.092;8.516;2023-04-25T02:50:56;10.40;61.70
12156;DHT22;6141;49.092;8.516;2023-04-25T02:53:25;10.40;62.10
12156;DHT22;6141;49.092;8.516;2023-04-25T02:55:54;10.50;61.60
12156;DHT22;6141;49.092;8.516;2023-04-25T02:58:27;10.30;61.80
12156;DHT22;6141;49.092;8.516;2023-04-25T03:00:56;10.20;62.40
12156;DHT22;6141;49.092;8.516;2023-04-25T03:03:27;10.00;63.50
12156;DHT22;6141;49.092;8.516;2023-04-25T03:05:56;10.10;63.80
12156;DHT22;6141;49.092;8.516;2023-04-25T03:08:30;10.20;63.40
12156;DHT22;6141;49.092;8.516;2023-04-25T03:11:01;10.50;62.20
12156;DHT22;6141;49.092;8.516;2023-04-25T03:13:31;10.50;61.80
12156;DHT22;6141;49.092;8.516;2023-04-25T03:16:00;10.60;61.40
12156;DHT22;6141;49.092;8.516;2023-04-25T03:18:29;10.70;60.80
12156;DHT22;6141;49.092;8.516;2023-04-25T03:20:58;10.60;61.10
12156;DHT22;6141;49.092;8.516;2023-04-25T03:23:26;10.40;62.60
12156;DHT22;6141;49.092;8.516;2023-04-25T03:25:55;10.50;61.80
12156;DHT22;6141;49.092;8.516;2023-04-25T03:28:24;10.60;60.80
12156;DHT22;6141;49.092;8.516;2023-04-25T03:30:56;10.60;61.10
12156;DHT22;6141;49.092;8.516;2023-04-25T03:33:25;10.50;61.20
12156;DHT22;6141;49.092;8.516;2023-04-25T03:35:53;10.50;61.10
12156;DHT22;6141;49.092;8.516;2023-04-25T03:38:22;10.30;61.70
12156;DHT22;6141;49.092;8.516;2023-04-25T03:40:53;10.30;61.40
12156;DHT22;6141;49.092;8.516;2023-04-25T03:43:42;10.40;61.10
12156;DHT22;6141;49.092;8.516;2023-04-25T03:46:13;9.90;61.80
12156;DHT22;6141;49.092;8.516;2023-04-25T03:48:42;9.80;63.60
12156;DHT22;6141;49.092;8.516;2023-04-25T03:51:17;10.10;62.10
12156;DHT22;6141;49.092;8.516;2023-04-25T03:53:45;10.60;59.20
12156;DHT22;6141;49.092;8.516;2023-04-25T03:56:33;10.60;58.80
12156;DHT22;6141;49.092;8.516;2023-04-25T03:59:11;10.40;60.00
12156;DHT22;6141;49.092;8.516;2023-04-25T04:01:41;10.60;59.30
12156;DHT22;6141;49.092;8.516;2023-04-25T04:04:10;10.70;58.20
12156;DHT22;6141;49.092;8.516;2023-04-25T04:06:39;10.60;59.20
12156;DHT22;6141;49.092;8.516;2023-04-25T04:09:13;10.70;59.20
12156;DHT22;6141;49.092;8.516;2023-04-25T04:11:43;10.60;59.40
12156;DHT22;6141;49.092;8.516;2023-04-25T04:14:12;10.50;59.90
12156;DHT22;6141;49.092;8.516;2023-04-25T04:16:45;10.10;61.80
12156;DHT22;6141;49.092;8.516;2023-04-25T04:19:15;9.90;63.70
12156;DHT22;6141;49.092;8.516;2023-04-25T04:21:58;9.90;63.80
12156;DHT22;6141;49.092;8.516;2023-04-25T04:24:27;10.30;62.00
12156;DHT22;6141;49.092;8.516;2023-04-25T04:27:01;10.30;62.30
12156;DHT22;6141;49.092;8.516;2023-04-25T04:29:50;10.10;62.60
12156;DHT22;6141;49.092;8.516;2023-04-25T04:32:31;10.30;61.70
12156;DHT22;6141;49.092;8.516;2023-04-25T04:35:03;10.60;60.40
12156;DHT22;6141;49.092;8.516;2023-04-25T04:37:33;10.90;57.70
12156;DHT22;6141;49.092;8.516;2023-04-25T04:40:15;11.10;57.30
12156;DHT22;6141;49.092;8.516;2023-04-25T04:43:01;11.10;57.90
12156;DHT22;6141;49.092;8.516;2023-04-25T04:45:30;10.70;59.80
12156;DHT22;6141;49.092;8.516;2023-04-25T04:48:09;10.60;60.70
12156;DHT22;6141;49.092;8.516;2023-04-25T04:50:58;10.70;60.50
12156;DHT22;6141;49.092;8.516;2023-04-25T04:53:53;10.80;59.80
12156;DHT22;6141;49.092;8.516;2023-04-25T04:56:40;10.50;61.20
12156;DHT22;6141;49.092;8.516;2023-04-25T04:59:24;10.40;61.40
12156;DHT22;6141;49.092;8.516;2023-04-25T05:02:19;10.60;60.50
12156;DHT22;6141;49.092;8.516;2023-04-25T05:04:52;10.70;59.80
12156;DHT22;6141;49.092;8.516;2023-04-25T05:07:50;11.00;58.20
12156;DHT22;6141;49.092;8.516;2023-04-25T05:10:42;10.80;60.20
12156;DHT22;6141;49.092;8.516;2023-04-25T05:13:33;10.20;64.90
12156;DHT22;6141;49.092;8.516;2023-04-25T05:16:11;10.10;66.40
12156;DHT22;6141;49.092;8.516;2023-04-25T05:19:06;10.30;64.50
12156;DHT22;6141;49.092;8.516;2023-04-25T05:21:51;10.80;61.60
12156;DHT22;6141;49.092;8.516;2023-04-25T05:24:58;11.00;59.40
12156;DHT22;6141;49.092;8.516;2023-04-25T05:27:48;11.10;58.80
12156;DHT22;6141;49.092;8.516;2023-04-25T05:30:37;11.20;58.40
12156;DHT22;6141;49.092;8.516;2023-04-25T05:33:17;11.40;57.80
12156;DHT22;6141;49.092;8.516;2023-04-25T05:35:46;11.60;56.00
12156;DHT22;6141;49.092;8.516;2023-04-25T05:38:17;11.70;54.90
12156;DHT22;6141;49.092;8.516;2023-04-25T05:41:06;11.80;54.80
12156;DHT22;6141;49.092;8.516;2023-04-25T05:43:41;11.90;55.00
12156;DHT22;6141;49.092;8.516;2023-04-25T05:46:53;11.90;55.70
12156;DHT22;6141;49.092;8.516;2023-04-25T05:49:31;11.30;58.10
12156;DHT22;6141;49.092;8.516;2023-04-25T05:52:14;10.90;60.90
12156;DHT22;6141;49.092;8.516;2023-04-25T05:55:16;10.50;61.80
12156;DHT22;6141;49.092;8.516;2023-04-25T05:57:45;10.40;62.60
12156;DHT22;6141;49.092;8.516;2023-04-25T06:00:17;10.40;62.60
12156;DHT22;6141;49.092;8.516;2023-04-25T06:02:48;10.60;62.40
12156;DHT22;6141;49.092;8.516;2023-04-25T06:05:18;11.00;60.50
12156;DHT22;6141;49.092;8.516;2023-04-25T06:07:47;11.10;59.40
12156;DHT22;6141;49.092;8.516;2023-04-25T06:10:18;11.20;59.00
12156;DHT22;6141;49.092;8.516;2023-04-25T06:12:47;11.10;58.40
12156;DHT22;6141;49.092;8.516;2023-04-25T06:15:17;11.30;59.80
12156;DHT22;6141;49.092;8.516;2023-04-25T06:17:48;11.10;58.80
12156;DHT22;6141;49.092;8.516;2023-04-25T06:20:17;11.10;58.70
12156;DHT22;6141;49.092;8.516;2023-04-25T06:22:50;11.20;59.50
12156;DHT22;6141;49.092;8.516;2023-04-25T06:25:24;11.30;59.50
12156;DHT22;6141;49.092;8.516;2023-04-25T06:27:53;11.20;58.60
12156;DHT22;6141;49.092;8.516;2023-04-25T06:30:22;11.00;58.70
12156;DHT22;6141;49.092;8.516;2023-04-25T06:32:57;11.00;59.30
12156;DHT22;6141;49.092;8.516;2023-04-25T06:35:29;11.10;58.30
12156;DHT22;6141;49.092;8.516;2023-04-25T06:37:59;10.80;59.50
12156;DHT22;6141;49.092;8.516;2023-04-25T06:40:31;10.70;60.40
12156;DHT22;6141;49.092;8.516;2023-04-25T06:42:59;10.70;61.30
12156;DHT22;6141;49.092;8.516;2023-04-25T06:45:58;10.80;62.30
12156;DHT22;6141;49.092;8.516;2023-04-25T06:48:29;10.80;62.00
12156;DHT22;6141;49.092;8.516;2023-04-25T06:50:59;10.60;61.60
12156;DHT22;6141;49.092;8.516;2023-04-25T06:53:27;10.50;62.90
12156;DHT22;6141;49.092;8.516;2023-04-25T06:56:01;10.60;63.40
12156;DHT22;6141;49.092;8.516;2023-04-25T06:58:50;10.60;62.60
12156;DHT22;6141;49.092;8.516;2023-04-25T07:01:31;10.90;61.30
12156;DHT22;6141;49.092;8.516;2023-04-25T07:04:03;11.20;60.40
12156;DHT22;6141;49.092;8.516;2023-04-25T07:06:37;11.00;60.60
12156;DHT22;6141;49.092;8.516;2023-04-25T07:09:11;10.90;60.90
12156;DHT22;6141;49.092;8.516;2023-04-25T07:11:44;10.70;60.60
12156;DHT22;6141;49.092;8.516;2023-04-25T07:14:12;10.60;61.10
12156;DHT22;6141;49.092;8.516;2023-04-25T07:16:41;10.60;62.80
12156;DHT22;6141;49.092;8.516;2023-04-25T07:19:11;10.30;62.50
12156;DHT22;6141;49.092;8.516;2023-04-25T07:21:40;10.20;62.20
12156;DHT22;6141;49.092;8.516;2023-04-25T07:24:10;10.10;63.00
12156;DHT22;6141;49.092;8.516;2023-04-25T07:26:45;10.50;63.60
12156;DHT22;6141;49.092;8.516;2023-04-25T07:29:34;10.90;62.20
12156;DHT22;6141;49.092;8.516;2023-04-25T07:32:04;11.00;60.90
12156;DHT22;6141;49.092;8.516;2023-04-25T07:34:35;11.00;61.10
12156;DHT22;6141;49.092;8.516;2023-04-25T07:37:05;11.10;59.70
12156;DHT22;6141;49.092;8.516;2023-04-25T07:39:43;11.50;60.00
12156;DHT22;6141;49.092;8.516;2023-04-25T07:42:14;11.70;57.40
12156;DHT22;6141;49.092;8.516;2023-04-25T07:44:45;11.60;58.40
12156;DHT22;6141;49.092;8.516;2023-04-25T07:47:15;11.90;58.70
12156;DHT22;6141;49.092;8.516;2023-04-25T07:49:44;12.00;57.20
12156;DHT22;6141;49.092;8.516;2023-04-25T07:52:14;12.30;55.30
12156;DHT22;6141;49.092;8.516;2023-04-25T07:54:49;11.90;57.50
12156;DHT22;6141;49.092;8.516;2023-04-25T07:57:26;11.70;58.50
12156;DHT22;6141;49.092;8.516;2023-04-25T07:59:56;11.40;58.90
12156;DHT22;6141;49.092;8.516;2023-04-25T08:02:26;11.50;58.30
12156;DHT22;6141;49.092;8.516;2023-04-25T08:04:55;11.70;57.70
12156;DHT22;6141;49.092;8.516;2023-04-25T08:07:24;11.80;58.50
12156;DHT22;6141;49.092;8.516;2023-04-25T08:09:56;11.90;56.70
12156;DHT22;6141;49.092;8.516;2023-04-25T08:12:32;12.20;55.50
12156;DHT22;6141;49.092;8.516;2023-04-25T08:15:01;12.40;54.70
12156;DHT22;6141;49.092;8.516;2023-04-25T08:17:35;12.00;55.90
12156;DHT22;6141;49.092;8.516;2023-04-25T08:20:05;11.50;58.00
12156;DHT22;6141;49.092;8.516;2023-04-25T08:22:35;11.40;58.80
12156;DHT22;6141;49.092;8.516;2023-04-25T08:25:25;11.60;59.30
12156;DHT22;6141;49.092;8.516;2023-04-25T08:27:58;11.60;59.30
12156;DHT22;6141;49.092;8.516;2023-04-25T08:30:30;11.50;60.50
12156;DHT22;6141;49.092;8.516;2023-04-25T08:32:59;11.20;62.20
12156;DHT22;6141;49.092;8.516;2023-04-25T08:35:47;11.00;64.30
12156;DHT22;6141;49.092;8.516;2023-04-25T08:38:16;11.20;64.70
12156;DHT22;6141;49.092;8.516;2023-04-25T08:40:49;11.30;63.90
12156;DHT22;6141;49.092;8.516;2023-04-25T08:43:21;11.50;61.90
12156;DHT22;6141;49.092;8.516;2023-04-25T08:45:53;11.40;62.30
12156;DHT22;6141;49.092;8.516;2023-04-25T08:48:49;11.50;62.00
12156;DHT22;6141;49.092;8.516;2023-04-25T08:51:22;11.50;60.70
12156;DHT22;6141;49.092;8.516;2023-04-25T08:53:53;11.10;59.80
12156;DHT22;6141;49.092;8.516;2023-04-25T08:56:27;11.00;60.60
12156;DHT22;6141;49.092;8.516;2023-04-25T08:58:59;11.10;61.10
12156;DHT22;6141;49.092;8.516;2023-04-25T09:01:29;11.00;62.00
12156;DHT22;6141;49.092;8.516;2023-04-25T09:03:57;11.10;62.20
12156;DHT22;6141;49.092;8.516;2023-04-25T09:06:27;11.10;61.20
12156;DHT22;6141;49.092;8.516;2023-04-25T09:09:02;11.20;61.70
12156;DHT22;6141;49.092;8.516;2023-04-25T09:11:32;11.20;62.90
12156;DHT22;6141;49.092;8.516;2023-04-25T09:14:13;11.30;61.70
12156;DHT22;6141;49.092;8.516;2023-04-25T09:17:04;11.20;62.30
12156;DHT22;6141;49.092;8.516;2023-04-25T09:19:43;11.30;62.50
12156;DHT22;6141;49.092;8.516;2023-04-25T09:22:21;11.40;61.90
12156;DHT22;6141;49.092;8.516;2023-04-25T09:24:50;11.30;62.40
12156;DHT22;6141;49.092;8.516;2023-04-25T09:27:22;11.10;63.10
12156;DHT22;6141;49.092;8.516;2023-04-25T09:30:03;11.00;63.60
12156;DHT22;6141;49.092;8.516;2023-04-25T09:33:04;10.70;64.20
12156;DHT22;6141;49.092;8.516;2023-04-25T09:35:36;10.50;65.70
12156;DHT22;6141;49.092;8.516;2023-04-25T09:38:10;10.70;65.30
12156;DHT22;6141;49.092;8.516;2023-04-25T09:41:05;11.00;62.10
12156;DHT22;6141;49.092;8.516;2023-04-25T09:43:39;11.10;57.90
12156;DHT22;6141;49.092;8.516;2023-04-25T09:46:10;11.20;58.00
12156;DHT22;6141;49.092;8.516;2023-04-25T09:48:49;11.40;56.50
12156;DHT22;6141;49.092;8.516;2023-04-25T09:51:26;11.40;57.10
12156;DHT22;6141;49.092;8.516;2023-04-25T09:53:57;11.50;58.60
12156;DHT22;6141;49.092;8.516;2023-04-25T09:56:37;11.70;56.40
12156;DHT22;6141;49.092;8.516;2023-04-25T09:59:07;11.60;57.20
12156;DHT22;6141;49.092;8.516;2023-04-25T10:01:40;11.70;56.80
12156;DHT22;6141;49.092;8.516;2023-04-25T10:04:19;11.80;57.50
12156;DHT22;6141;49.092;8.516;2023-04-25T10:07:02;11.60;57.50
12156;DHT22;6141;49.092;8.516;2023-04-25T10:09:33;11.10;61.90
12156;DHT22;6141;49.092;8.516;2023-04-25T10:12:02;11.00;62.00
12156;DHT22;6141;49.092;8.516;2023-04-25T10:14:31;10.90;64.10
12156;DHT22;6141;49.092;8.516;2023-04-25T10:17:01;11.10;63.10
12156;DHT22;6141;49.092;8.516;2023-04-25T10:19:30;11.00;63.20
12156;DHT22;6141;49.092;8.516;2023-04-25T10:22:06;10.70;66.00
12156;DHT22;6141;49.092;8.516;2023-04-25T10:24:35;10.40;71.00
12156;DHT22;6141;49.092;8.516;2023-04-25T10:27:04;10.20;74.60
12156;DHT22;6141;49.092;8.516;2023-04-25T10:29:35;10.20;75.10
12156;DHT22;6141;49.092;8.516;2023-04-25T10:32:05;10.10;78.70
12156;DHT22;6141;49.092;8.516;2023-04-25T10:34:41;10.20;80.70
12156;DHT22;6141;49.092;8.516;2023-04-25T10:37:10;10.30;79.50
12156;DHT22;6141;49.092;8.516;2023-04-25T10:39:40;10.30;78.20
12156;DHT22;6141;49.092;8.516;2023-04-25T10:42:09;10.20;80.00
12156;DHT22;6141;49.092;8.516;2023-04-25T10:44:38;10.00;80.70
12156;DHT22;6141;49.092;8.516;2023-04-25T10:47:08;9.90;81.10
12156;DHT22;6141;49.092;8.516;2023-04-25T10:49:41;10.00;81.10
12156;DHT22;6141;49.092;8.516;2023-04-25T10:52:17;9.90;82.70
12156;DHT22;6141;49.092;8.516;2023-04-25T10:54:47;9.90;86.40
12156;DHT22;6141;49.092;8.516;2023-04-25T10:57:39;10.00;89.40
12156;DHT22;6141;49.092;8.516;2023-04-25T11:00:11;10.20;84.90
12156;DHT22;6141;49.092;8.516;2023-04-25T11:02:46;10.30;82.70
12156;DHT22;6141;49.092;8.516;2023-04-25T11:05:24;10.50;78.80
12156;DHT22;6141;49.092;8.516;2023-04-25T11:07:56;10.50;81.50
12156;DHT22;6141;49.092;8.516;2023-04-25T11:10:35;10.60;83.80
12156;DHT22;6141;49.092;8.516;2023-04-25T11:13:04;10.80;87.20
12156;DHT22;6141;49.092;8.516;2023-04-25T11:15:33;10.90;85.50
12156;DHT22;6141;49.092;8.516;2023-04-25T11:18:03;10.80;87.00
12156;DHT22;6141;49.092;8.516;2023-04-25T11:20:32;10.80;87.60
12156;DHT22;6141;49.092;8.516;2023-04-25T11:23:01;10.80;88.50
12156;DHT22;6141;49.092;8.516;2023-04-25T11:25:29;11.00;87.80
12156;DHT22;6141;49.092;8.516;2023-04-25T11:27:59;11.10;85.30
12156;DHT22;6141;49.092;8.516;2023-04-25T11:30:29;11.30;83.30
12156;DHT22;6141;49.092;8.516;2023-04-25T11:32:59;11.20;80.20
12156;DHT22;6141;49.092;8.516;2023-04-25T11:35:29;11.20;83.60
12156;DHT22;6141;49.092;8.516;2023-04-25T11:37:58;11.30;81.10
12156;DHT22;6141;49.092;8.516;2023-04-25T11:40:27;11.20;82.90
12156;DHT22;6141;49.092;8.516;2023-04-25T11:43:00;11.20;82.10
12156;DHT22;6141;49.092;8.516;2023-04-25T11:45:32;11.10;80.00
12156;DHT22;6141;49.092;8.516;2023-04-25T11:48:02;11.10;80.90
12156;DHT22;6141;49.092;8.516;2023-04-25T11:50:32;11.30;85.70
12156;DHT22;6141;49.092;8.516;2023-04-25T11:53:01;11.10;82.60
12156;DHT22;6141;49.092;8.516;2023-04-25T11:55:30;10.80;84.30
12156;DHT22;6141;49.092;8.516;2023-04-25T11:58:03;11.00;87.90
12156;DHT22;6141;49.092;8.516;2023-04-25T12:00:32;10.90;84.70
12156;DHT22;6141;49.092;8.516;2023-04-25T12:03:01;10.90;87.20
12156;DHT22;6141;49.092;8.516;2023-04-25T12:05:32;10.90;81.80
12156;DHT22;6141;49.092;8.516;2023-04-25T12:08:11;10.70;85.80
12156;DHT22;6141;49.092;8.516;2023-04-25T12:10:43;10.60;86.10
12156;DHT22;6141;49.092;8.516;2023-04-25T12:13:23;10.70;87.00
12156;DHT22;6141;49.092;8.516;2023-04-25T12:15:54;10.60;86.80
12156;DHT22;6141;49.092;8.516;2023-04-25T12:18:25;10.70;88.60
12156;DHT22;6141;49.092;8.516;2023-04-25T12:20:56;10.60;86.80
12156;DHT22;6141;49.092;8.516;2023-04-25T12:23:28;10.50;87.30
12156;DHT22;6141;49.092;8.516;2023-04-25T12:25:57;10.60;85.90
12156;DHT22;6141;49.092;8.516;2023-04-25T12:28:25;10.70;87.50
12156;DHT22;6141;49.092;8.516;2023-04-25T12:30:56;10.80;86.30
12156;DHT22;6141;49.092;8.516;2023-04-25T12:33:27;10.70;86.20
12156;DHT22;6141;49.092;8.516;2023-04-25T12:35:58;10.80;85.60
12156;DHT22;6141;49.092;8.516;2023-04-25T12:38:28;10.90;85.50
12156;DHT22;6141;49.092;8.516;2023-04-25T12:40:58;11.10;86.50
12156;DHT22;6141;49.092;8.516;2023-04-25T12:43:27;11.20;84.40
12156;DHT22;6141;49.092;8.516;2023-04-25T12:45:56;11.20;82.60
12156;DHT22;6141;49.092;8.516;2023-04-25T12:48:24;11.10;82.80
12156;DHT22;6141;49.092;8.516;2023-04-25T12:50:53;11.10;83.70
12156;DHT22;6141;49.092;8.516;2023-04-25T12:53:23;11.20;83.30
12156;DHT22;6141;49.092;8.516;2023-04-25T12:55:52;11.40;83.50
12156;DHT22;6141;49.092;8.516;2023-04-25T12:58:21;11.30;80.60
12156;DHT22;6141;49.092;8.516;2023-04-25T13:00:50;11.10;81.70
12156;DHT22;6141;49.092;8.516;2023-04-25T13:03:21;11.20;81.10
12156;DHT22;6141;49.092;8.516;2023-04-25T13:05:50;11.30;82.30
12156;DHT22;6141;49.092;8.516;2023-04-25T13:08:19;11.30;82.20
12156;DHT22;6141;49.092;8.516;2023-04-25T13:10:49;11.40;78.00
12156;DHT22;6141;49.092;8.516;2023-04-25T13:13:18;11.50;80.70
12156;DHT22;6141;49.092;8.516;2023-04-25T13:15:47;11.40;80.10
12156;DHT22;6141;49.092;8.516;2023-04-25T13:18:15;11.40;77.70
12156;DHT22;6141;49.092;8.516;2023-04-25T13:20:44;11.20;83.20
12156;DHT22;6141;49.092;8.516;2023-04-25T13:23:13;11.10;83.80
12156;DHT22;6141;49.092;8.516;2023-04-25T13:25:41;11.30;83.80
12156;DHT22;6141;49.092;8.516;2023-04-25T13:28:11;11.70;80.70
12156;DHT22;6141;49.092;8.516;2023-04-25T13:30:40;11.80;78.00
12156;DHT22;6141;49.092;8.516;2023-04-25T13:33:08;11.80;72.30
12156;DHT22;6141;49.092;8.516;2023-04-25T13:35:38;11.80;74.30
12156;DHT22;6141;49.092;8.516;2023-04-25T13:38:06;11.70;73.30
12156;DHT22;6141;49.092;8.516;2023-04-25T13:40:36;11.90;75.70
12156;DHT22;6141;49.092;8.516;2023-04-25T13:43:05;11.90;75.50
12156;DHT22;6141;49.092;8.516;2023-04-25T13:45:35;12.10;76.70
12156;DHT22;6141;49.092;8.516;2023-04-25T13:48:04;12.30;75.20
12156;DHT22;6141;49.092;8.516;2023-04-25T13:50:32;12.20;77.10
12156;DHT22;6141;49.092;8.516;2023-04-25T13:53:01;12.10;71.80
12156;DHT22;6141;49.092;8.516;2023-04-25T13:55:29;12.10;73.60
12156;DHT22;6141;49.092;8.516;2023-04-25T13:57:58;12.10;74.70
12156;DHT22;6141;49.092;8.516;2023-04-25T14:00:26;12.10;75.00
12156;DHT22;6141;49.092;8.516;2023-04-25T14:02:57;11.90;78.00
12156;DHT22;6141;49.092;8.516;2023-04-25T14:05:25;11.80;76.70
12156;DHT22;6141;49.092;8.516;2023-04-25T14:07:54;11.80;77.40
12156;DHT22;6141;49.092;8.516;2023-04-25T14:10:22;12.10;84.60
12156;DHT22;6141;49.092;8.516;2023-04-25T14:12:50;12.40;78.20
12156;DHT22;6141;49.092;8.516;2023-04-25T14:15:19;12.70;69.40
12156;DHT22;6141;49.092;8.516;2023-04-25T14:17:47;12.70;69.30
12156;DHT22;6141;49.092;8.516;2023-04-25T14:20:18;12.50;67.50
12156;DHT22;6141;49.092;8.516;2023-04-25T14:22:48;12.40;70.00
12156;DHT22;6141;49.092;8.516;2023-04-25T14:25:17;12.50;70.80
12156;DHT22;6141;49.092;8.516;2023-04-25T14:27:45;12.60;70.20
12156;DHT22;6141;49.092;8.516;2023-04-25T14:30:17;12.50;66.10
12156;DHT22;6141;49.092;8.516;2023-04-25T14:32:47;12.20;66.10
12156;DHT22;6141;49.092;8.516;2023-04-25T14:35:16;12.20;67.90
12156;DHT22;6141;49.092;8.516;2023-04-25T14:37:46;12.30;68.60
12156;DHT22;6141;49.092;8.516;2023-04-25T14:40:14;12.60;69.20
12156;DHT22;6141;49.092;8.516;2023-04-25T14:42:44;12.60;69.20
12156;DHT22;6141;49.092;8.516;2023-04-25T14:45:12;12.40;69.10
12156;DHT22;6141;49.092;8.516;2023-04-25T14:47:40;12.30;65.20
12156;DHT22;6141;49.092;8.516;2023-04-25T14:50:10;12.30;69.00
12156;DHT22;6141;49.092;8.516;2023-04-25T14:52:39;12.50;66.00
12156;DHT22;6141;49.092;8.516;2023-04-25T14:55:09;12.50;69.20
12156;DHT22;6141;49.092;8.516;2023-04-25T14:57:37;12.60;68.20
12156;DHT22;6141;49.092;8.516;2023-04-25T15:00:07;12.40;68.10
12156;DHT22;6141;49.092;8.516;2023-04-25T15:02:36;12.30;69.00
12156;DHT22;6141;49.092;8.516;2023-04-25T15:05:07;12.20;71.80
12156;DHT22;6141;49.092;8.516;2023-04-25T15:07:37;12.30;71.90
12156;DHT22;6141;49.092;8.516;2023-04-25T15:10:09;12.30;70.20
12156;DHT22;6141;49.092;8.516;2023-04-25T15:12:40;12.20;69.60
12156;DHT22;6141;49.092;8.516;2023-04-25T15:15:10;12.20;71.40
12156;DHT22;6141;49.092;8.516;2023-04-25T15:17:51;12.30;72.30
12156;DHT22;6141;49.092;8.516;2023-04-25T15:20:24;12.20;66.40
12156;DHT22;6141;49.092;8.516;2023-04-25T15:22:53;12.30;67.50
12156;DHT22;6141;49.092;8.516;2023-04-25T15:25:24;12.10;68.80
12156;DHT22;6141;49.092;8.516;2023-04-25T15:27:55;12.00;67.80
12156;DHT22;6141;49.092;8.516;2023-04-25T15:30:24;12.00;70.80
12156;DHT22;6141;49.092;8.516;2023-04-25T15:32:52;11.90;70.20
12156;DHT22;6141;49.092;8.516;2023-04-25T15:35:21;11.80;71.40
12156;DHT22;6141;49.092;8.516;2023-04-25T15:37:49;12.10;72.10
12156;DHT22;6141;49.092;8.516;2023-04-25T15:40:18;12.20;69.40
12156;DHT22;6141;49.092;8.516;2023-04-25T15:42:49;12.30;70.40
12156;DHT22;6141;49.092;8.516;2023-04-25T15:45:19;11.60;70.30
12156;DHT22;6141;49.092;8.516;2023-04-25T15:47:49;11.20;70.50
12156;DHT22;6141;49.092;8.516;2023-04-25T15:50:19;10.80;72.10
12156;DHT22;6141;49.092;8.516;2023-04-25T15:52:48;10.80;70.60
12156;DHT22;6141;49.092;8.516;2023-04-25T15:55:17;11.00;71.10
12156;DHT22;6141;49.092;8.516;2023-04-25T15:57:49;11.00;70.70
12156;DHT22;6141;49.092;8.516;2023-04-25T16:00:18;11.10;71.10
12156;DHT22;6141;49.092;8.516;2023-04-25T16:02:48;10.90;70.70
12156;DHT22;6141;49.092;8.516;2023-04-25T16:05:17;11.00;71.00
12156;DHT22;6141;49.092;8.516;2023-04-25T16:07:46;10.70;68.80
12156;DHT22;6141;49.092;8.516;2023-04-25T16:10:17;10.70;72.60
12156;DHT22;6141;49.092;8.516;2023-04-25T16:12:49;10.80;74.20
12156;DHT22;6141;49.092;8.516;2023-04-25T16:15:17;10.60;74.00
12156;DHT22;6141;49.092;8.516;2023-04-25T16:17:46;10.60;76.60
12156;DHT22;6141;49.092;8.516;2023-04-25T16:20:16;10.10;77.90